Time;durP1;ratioP1;P1;durP2;ratioP2;P2;SDS_P1;SDS_P2;PMS_P1;PMS_P2;Temp;Humidity;BMP_temperature;BMP_pressure;BME280_temperature;BME280_humidity;BME280_pressure;Samples;Min_cycle;Max_cycle;Signal;HPM_P1;HPM_P2
2020/08/06 01:39:33;;;;;;;6.749999;6.149999;;;;;;;12.56;100;95496.12;;;;
2020/08/06 01:44:33;;;;;;;6.749999;6.149999;;;;;;;12.56;100;95496.12;;;;
2020/08/06 01:49:34;;;;;;;6.749999;6.149999;;;;;;;12.56;100;95496.12;;;;
2020/08/06 01:54:34;;;;;;;6.749999;6.149999;;;;;;;12.56;100;95496.12;;;;
2020/08/06 01:59:35;;;;;;;6.749999;6.149999;;;;;;;12.56;100;95496.12;;;;
2020/08/06 02:04:35;;;;;;;6.749999;6.149999;;;;;;;12.56;100;95496.12;;;;
2020/08/06 02:09:35;;;;;;;6.749999;6.149999;;;;;;;12.56;100;95496.12;;;;
2020/08/06 02:14:36;;;;;;;6.749999;6.149999;;;;;;;12.56;100;95496.12;;;;
2020/08/06 02:19:36;;;;;;;6.749999;6.149999;;;;;;;12.56;100;95496.12;;;;
2020/08/06 05:39:46;;;;;;;12.55;11.35;;;;;;;12.65;100;95606.16;;;;
2020/08/06 05:44:46;;;;;;;12.55;11.35;;;;;;;12.65;100;95606.16;;;;
2020/08/06 05:49:47;;;;;;;12.55;11.35;;;;;;;12.65;100;95606.16;;;;
2020/08/06 05:54:47;;;;;;;12.55;11.35;;;;;;;12.65;100;95606.16;;;;
2020/08/06 05:59:48;;;;;;;12.55;11.35;;;;;;;12.65;100;95606.16;;;;
2020/08/06 06:04:48;;;;;;;12.55;11.35;;;;;;;12.65;100;95606.16;;;;
2020/08/06 06:09:48;;;;;;;12.55;11.35;;;;;;;12.65;100;95606.16;;;;
2020/08/06 06:14:49;;;;;;;12.55;11.35;;;;;;;12.65;100;95606.16;;;;
2020/08/06 06:19:49;;;;;;;12.55;11.35;;;;;;;12.65;100;95606.16;;;;
2020/08/06 07:38:53;;;;;;;3.95;3.15;;;;;;;23.26;100;95655.58;;;;
2020/08/06 07:39:59;;;;;;;3.95;3.15;;;;;;;23.26;100;95655.58;;;;
2020/08/06 07:41:06;;;;;;;3.95;3.15;;;;;;;23.26;100;95655.58;;;;
2020/08/06 07:42:10;;;;;;;3.95;3.15;;;;;;;23.26;100;95655.58;;;;
2020/08/06 07:43:15;;;;;;;3.95;3.15;;;;;;;23.26;100;95655.58;;;;
2020/08/06 07:44:21;;;;;;;3.95;3.15;;;;;;;23.26;100;95655.58;;;;
2020/08/06 07:45:26;;;;;;;3.95;3.15;;;;;;;23.26;100;95655.58;;;;
2020/08/06 07:46:54;;;;;;;3.95;3.15;;;;;;;23.26;100;95655.58;;;;
2020/08/06 07:48:00;;;;;;;3.95;3.15;;;;;;;23.26;100;95655.58;;;;
2020/08/06 07:49:02;;;;;;;3.95;3.15;;;;;;;23.26;100;95655.58;;;;
2020/08/06 07:50:10;;;;;;;3.95;3.15;;;;;;;23.26;100;95655.58;;;;
2020/08/06 07:51:15;;;;;;;3.95;3.15;;;;;;;23.26;100;95655.58;;;;
2020/08/06 07:52:19;;;;;;;3.95;3.15;;;;;;;23.26;100;95655.58;;;;
2020/08/06 07:53:25;;;;;;;3.95;3.15;;;;;;;23.26;100;95655.58;;;;
2020/08/06 07:54:26;;;;;;;3.95;3.15;;;;;;;23.26;100;95655.58;;;;
2020/08/06 07:55:32;;;;;;;3.95;3.15;;;;;;;23.26;100;95655.58;;;;
2020/08/06 07:56:37;;;;;;;3.95;3.15;;;;;;;23.26;100;95655.58;;;;
2020/08/06 07:57:38;;;;;;;3.95;3.15;;;;;;;23.26;100;95655.58;;;;
2020/08/06 07:58:43;;;;;;;3.95;3.15;;;;;;;23.26;100;95655.58;;;;
2020/08/06 07:59:47;;;;;;;3.95;3.15;;;;;;;23.26;100;95655.58;;;;
2020/08/06 08:00:49;;;;;;;3.95;3.15;;;;;;;23.26;100;95655.58;;;;
2020/08/06 08:01:56;;;;;;;3.95;3.15;;;;;;;23.26;100;95655.58;;;;
2020/08/06 08:03:01;;;;;;;3.95;3.15;;;;;;;23.26;100;95655.58;;;;
2020/08/06 08:04:07;;;;;;;3.95;3.15;;;;;;;23.26;100;95655.58;;;;
2020/08/06 08:05:11;;;;;;;3.95;3.15;;;;;;;23.26;100;95655.58;;;;
2020/08/06 08:06:17;;;;;;;3.95;3.15;;;;;;;23.26;100;95655.58;;;;
2020/08/06 08:07:22;;;;;;;3.95;3.15;;;;;;;23.26;100;95655.58;;;;
2020/08/06 08:08:30;;;;;;;3.95;3.15;;;;;;;23.26;100;95655.58;;;;
2020/08/06 08:09:33;;;;;;;3.95;3.15;;;;;;;23.26;100;95655.58;;;;
2020/08/06 08:10:37;;;;;;;3.95;3.15;;;;;;;23.26;100;95655.58;;;;
2020/08/06 08:11:42;;;;;;;3.95;3.15;;;;;;;23.26;100;95655.58;;;;
2020/08/06 08:12:47;;;;;;;3.95;3.15;;;;;;;23.26;100;95655.58;;;;
2020/08/06 08:13:48;;;;;;;3.95;3.15;;;;;;;23.26;100;95655.58;;;;
2020/08/06 08:14:54;;;;;;;3.95;3.15;;;;;;;23.26;100;95655.58;;;;
2020/08/06 08:15:58;;;;;;;3.95;3.15;;;;;;;23.26;100;95655.58;;;;
2020/08/06 08:16:59;;;;;;;3.95;3.15;;;;;;;23.26;100;95655.58;;;;
2020/08/06 08:18:03;;;;;;;3.95;3.15;;;;;;;23.26;100;95655.58;;;;
2020/08/06 08:19:07;;;;;;;3.95;3.15;;;;;;;23.26;100;95655.58;;;;
2020/08/06 08:20:10;;;;;;;3.95;3.15;;;;;;;23.26;100;95655.58;;;;
2020/08/06 08:21:15;;;;;;;3.95;3.15;;;;;;;23.26;100;95655.58;;;;
2020/08/06 08:22:21;;;;;;;3.95;3.15;;;;;;;23.26;100;95655.58;;;;
2020/08/06 08:23:25;;;;;;;3.95;3.15;;;;;;;23.26;100;95655.58;;;;
2020/08/06 08:33:32;;;;;;;4.099999;3.2;;;;;;;25.91;92.04492;95655.69;;;;
2020/08/06 08:34:37;;;;;;;4.099999;3.2;;;;;;;25.91;92.04492;95655.69;;;;
2020/08/06 08:35:42;;;;;;;4.099999;3.2;;;;;;;25.91;92.04492;95655.69;;;;
2020/08/06 08:36:42;;;;;;;4.099999;3.2;;;;;;;25.91;92.04492;95655.69;;;;
2020/08/06 08:37:46;;;;;;;4.099999;3.2;;;;;;;25.91;92.04492;95655.69;;;;
2020/08/06 08:38:49;;;;;;;4.099999;3.2;;;;;;;25.91;92.04492;95655.69;;;;
2020/08/06 08:39:50;;;;;;;4.099999;3.2;;;;;;;25.91;92.04492;95655.69;;;;
2020/08/06 08:40:56;;;;;;;4.099999;3.2;;;;;;;25.91;92.04492;95655.69;;;;
2020/08/06 08:42:03;;;;;;;4.099999;3.2;;;;;;;25.91;92.04492;95655.69;;;;
2020/08/06 08:43:09;;;;;;;4.099999;3.2;;;;;;;25.91;92.04492;95655.69;;;;
2020/08/06 08:44:10;;;;;;;4.099999;3.2;;;;;;;25.91;92.04492;95655.69;;;;
2020/08/06 08:45:13;;;;;;;4.099999;3.2;;;;;;;25.91;92.04492;95655.69;;;;
2020/08/06 08:46:18;;;;;;;4.099999;3.2;;;;;;;25.91;92.04492;95655.69;;;;
2020/08/06 08:47:22;;;;;;;4.099999;3.2;;;;;;;25.91;92.04492;95655.69;;;;
2020/08/06 08:48:28;;;;;;;4.099999;3.2;;;;;;;25.91;92.04492;95655.69;;;;
2020/08/06 08:49:32;;;;;;;4.099999;3.2;;;;;;;25.91;92.04492;95655.69;;;;
2020/08/06 08:50:39;;;;;;;4.099999;3.2;;;;;;;25.91;92.04492;95655.69;;;;
2020/08/06 08:51:43;;;;;;;4.099999;3.2;;;;;;;25.91;92.04492;95655.69;;;;
2020/08/06 08:52:49;;;;;;;4.099999;3.2;;;;;;;25.91;92.04492;95655.69;;;;
2020/08/06 08:53:53;;;;;;;4.099999;3.2;;;;;;;25.91;92.04492;95655.69;;;;
2020/08/06 08:54:58;;;;;;;4.099999;3.2;;;;;;;25.91;92.04492;95655.69;;;;
2020/08/06 08:56:02;;;;;;;4.099999;3.2;;;;;;;25.91;92.04492;95655.69;;;;
2020/08/06 08:57:04;;;;;;;4.099999;3.2;;;;;;;25.91;92.04492;95655.69;;;;
2020/08/06 08:58:10;;;;;;;4.099999;3.2;;;;;;;25.91;92.04492;95655.69;;;;
2020/08/06 08:59:15;;;;;;;4.099999;3.2;;;;;;;25.91;92.04492;95655.69;;;;
2020/08/06 09:00:21;;;;;;;4.099999;3.2;;;;;;;25.91;92.04492;95655.69;;;;
2020/08/06 09:01:26;;;;;;;4.099999;3.2;;;;;;;25.91;92.04492;95655.69;;;;
2020/08/06 09:02:26;;;;;;;4.099999;3.2;;;;;;;25.91;92.04492;95655.69;;;;
2020/08/06 09:03:28;;;;;;;4.099999;3.2;;;;;;;25.91;92.04492;95655.69;;;;
2020/08/06 09:04:35;;;;;;;4.099999;3.2;;;;;;;25.91;92.04492;95655.69;;;;
2020/08/06 09:05:35;;;;;;;4.099999;3.2;;;;;;;25.91;92.04492;95655.69;;;;
2020/08/06 09:06:36;;;;;;;4.099999;3.2;;;;;;;25.91;92.04492;95655.69;;;;
2020/08/06 09:07:45;;;;;;;4.099999;3.2;;;;;;;25.91;92.04492;95655.69;;;;
2020/08/06 09:08:48;;;;;;;4.099999;3.2;;;;;;;25.91;92.04492;95655.69;;;;
2020/08/06 09:09:49;;;;;;;4.099999;3.2;;;;;;;25.91;92.04492;95655.69;;;;
2020/08/06 09:10:54;;;;;;;4.099999;3.2;;;;;;;25.91;92.04492;95655.69;;;;
2020/08/06 09:11:58;;;;;;;4.099999;3.2;;;;;;;25.91;92.04492;95655.69;;;;
2020/08/06 09:13:01;;;;;;;4.099999;3.2;;;;;;;25.91;92.04492;95655.69;;;;
2020/08/06 09:14:11;;;;;;;4.099999;3.2;;;;;;;25.91;92.04492;95655.69;;;;
2020/08/06 09:15:17;;;;;;;4.099999;3.2;;;;;;;25.91;92.04492;95655.69;;;;
2020/08/06 09:16:20;;;;;;;4.099999;3.2;;;;;;;25.91;92.04492;95655.69;;;;
2020/08/06 09:17:26;;;;;;;4.099999;3.2;;;;;;;25.91;92.04492;95655.69;;;;
2020/08/06 11:49:37;;;;;;;3.400001;2.9;;;;;;;34.42;52.49219;95630.04;;;;
2020/08/06 11:50:42;;;;;;;3.400001;2.9;;;;;;;34.42;52.49219;95630.04;;;;
2020/08/06 11:51:46;;;;;;;3.400001;2.9;;;;;;;34.42;52.49219;95630.04;;;;
2020/08/06 11:52:51;;;;;;;3.400001;2.9;;;;;;;34.42;52.49219;95630.04;;;;
2020/08/06 11:53:53;;;;;;;3.400001;2.9;;;;;;;34.42;52.49219;95630.04;;;;
2020/08/06 11:54:59;;;;;;;3.400001;2.9;;;;;;;34.42;52.49219;95630.04;;;;
2020/08/06 11:56:05;;;;;;;3.400001;2.9;;;;;;;34.42;52.49219;95630.04;;;;
2020/08/06 11:57:12;;;;;;;3.400001;2.9;;;;;;;34.42;52.49219;95630.04;;;;
2020/08/06 11:58:17;;;;;;;3.400001;2.9;;;;;;;34.42;52.49219;95630.04;;;;
2020/08/06 11:59:24;;;;;;;3.400001;2.9;;;;;;;34.42;52.49219;95630.04;;;;
2020/08/06 12:00:30;;;;;;;3.400001;2.9;;;;;;;34.42;52.49219;95630.04;;;;
2020/08/06 12:01:34;;;;;;;3.400001;2.9;;;;;;;34.42;52.49219;95630.04;;;;
2020/08/06 12:02:39;;;;;;;3.400001;2.9;;;;;;;34.42;52.49219;95630.04;;;;
2020/08/06 12:03:44;;;;;;;3.400001;2.9;;;;;;;34.42;52.49219;95630.04;;;;
2020/08/06 12:04:48;;;;;;;3.400001;2.9;;;;;;;34.42;52.49219;95630.04;;;;
2020/08/06 12:05:49;;;;;;;3.400001;2.9;;;;;;;34.42;52.49219;95630.04;;;;
2020/08/06 12:06:54;;;;;;;3.400001;2.9;;;;;;;34.42;52.49219;95630.04;;;;
2020/08/06 12:07:58;;;;;;;3.400001;2.9;;;;;;;34.42;52.49219;95630.04;;;;
2020/08/06 12:08:58;;;;;;;3.400001;2.9;;;;;;;34.42;52.49219;95630.04;;;;
2020/08/06 12:10:00;;;;;;;3.400001;2.9;;;;;;;34.42;52.49219;95630.04;;;;
2020/08/06 12:11:05;;;;;;;3.400001;2.9;;;;;;;34.42;52.49219;95630.04;;;;
2020/08/06 12:12:11;;;;;;;3.400001;2.9;;;;;;;34.42;52.49219;95630.04;;;;
2020/08/06 12:13:16;;;;;;;3.400001;2.9;;;;;;;34.42;52.49219;95630.04;;;;
2020/08/06 12:14:23;;;;;;;3.400001;2.9;;;;;;;34.42;52.49219;95630.04;;;;
2020/08/06 12:15:28;;;;;;;3.400001;2.9;;;;;;;34.42;52.49219;95630.04;;;;
2020/08/06 12:16:35;;;;;;;3.400001;2.9;;;;;;;34.42;52.49219;95630.04;;;;
2020/08/06 12:17:43;;;;;;;3.400001;2.9;;;;;;;34.42;52.49219;95630.04;;;;
2020/08/06 12:18:48;;;;;;;3.400001;2.9;;;;;;;34.42;52.49219;95630.04;;;;
2020/08/06 12:19:49;;;;;;;3.400001;2.9;;;;;;;34.42;52.49219;95630.04;;;;
2020/08/06 12:20:55;;;;;;;3.400001;2.9;;;;;;;34.42;52.49219;95630.04;;;;
2020/08/06 12:21:57;;;;;;;3.400001;2.9;;;;;;;34.42;52.49219;95630.04;;;;
2020/08/06 12:23:01;;;;;;;3.400001;2.9;;;;;;;34.42;52.49219;95630.04;;;;
2020/08/06 12:24:06;;;;;;;3.400001;2.9;;;;;;;34.42;52.49219;95630.04;;;;
2020/08/06 12:25:07;;;;;;;3.400001;2.9;;;;;;;34.42;52.49219;95630.04;;;;
2020/08/06 12:26:17;;;;;;;3.400001;2.9;;;;;;;34.42;52.49219;95630.04;;;;
2020/08/06 12:27:28;;;;;;;3.400001;2.9;;;;;;;34.42;52.49219;95630.04;;;;
2020/08/06 12:28:32;;;;;;;3.400001;2.9;;;;;;;34.42;52.49219;95630.04;;;;
2020/08/06 12:29:39;;;;;;;3.400001;2.9;;;;;;;34.42;52.49219;95630.04;;;;
2020/08/06 12:30:45;;;;;;;3.400001;2.9;;;;;;;34.42;52.49219;95630.04;;;;
2020/08/06 12:31:52;;;;;;;3.400001;2.9;;;;;;;34.42;52.49219;95630.04;;;;
2020/08/06 12:32:56;;;;;;;3.400001;2.9;;;;;;;34.42;52.49219;95630.04;;;;
2020/08/06 14:00:01;;;;;;;3.3;2.9;;;;;;;36.84;53.85254;95586.8;;;;
2020/08/06 14:01:08;;;;;;;3.3;2.9;;;;;;;36.84;53.85254;95586.8;;;;
2020/08/06 14:02:13;;;;;;;3.3;2.9;;;;;;;36.84;53.85254;95586.8;;;;
2020/08/06 14:03:18;;;;;;;3.3;2.9;;;;;;;36.84;53.85254;95586.8;;;;
2020/08/06 14:04:26;;;;;;;3.3;2.9;;;;;;;36.84;53.85254;95586.8;;;;
2020/08/06 14:05:31;;;;;;;3.3;2.9;;;;;;;36.84;53.85254;95586.8;;;;
2020/08/06 14:06:37;;;;;;;3.3;2.9;;;;;;;36.84;53.85254;95586.8;;;;
2020/08/06 14:07:42;;;;;;;3.3;2.9;;;;;;;36.84;53.85254;95586.8;;;;
2020/08/06 14:08:46;;;;;;;3.3;2.9;;;;;;;36.84;53.85254;95586.8;;;;
2020/08/06 14:09:48;;;;;;;3.3;2.9;;;;;;;36.84;53.85254;95586.8;;;;
2020/08/06 14:10:54;;;;;;;3.3;2.9;;;;;;;36.84;53.85254;95586.8;;;;
2020/08/06 14:12:01;;;;;;;3.3;2.9;;;;;;;36.84;53.85254;95586.8;;;;
2020/08/06 14:13:06;;;;;;;3.3;2.9;;;;;;;36.84;53.85254;95586.8;;;;
2020/08/06 14:14:12;;;;;;;3.3;2.9;;;;;;;36.84;53.85254;95586.8;;;;
2020/08/06 14:15:16;;;;;;;3.3;2.9;;;;;;;36.84;53.85254;95586.8;;;;
2020/08/06 14:16:29;;;;;;;3.3;2.9;;;;;;;36.84;53.85254;95586.8;;;;
2020/08/06 14:17:42;;;;;;;3.3;2.9;;;;;;;36.84;53.85254;95586.8;;;;
2020/08/06 14:18:47;;;;;;;3.3;2.9;;;;;;;36.84;53.85254;95586.8;;;;
2020/08/06 14:19:52;;;;;;;3.3;2.9;;;;;;;36.84;53.85254;95586.8;;;;
2020/08/06 14:20:58;;;;;;;3.3;2.9;;;;;;;36.84;53.85254;95586.8;;;;
2020/08/06 14:22:03;;;;;;;3.3;2.9;;;;;;;36.84;53.85254;95586.8;;;;
2020/08/06 14:23:08;;;;;;;3.3;2.9;;;;;;;36.84;53.85254;95586.8;;;;
2020/08/06 14:24:12;;;;;;;3.3;2.9;;;;;;;36.84;53.85254;95586.8;;;;
2020/08/06 14:25:16;;;;;;;3.3;2.9;;;;;;;36.84;53.85254;95586.8;;;;
2020/08/06 14:26:22;;;;;;;3.3;2.9;;;;;;;36.84;53.85254;95586.8;;;;
2020/08/06 14:27:24;;;;;;;3.3;2.9;;;;;;;36.84;53.85254;95586.8;;;;
2020/08/06 14:28:29;;;;;;;3.3;2.9;;;;;;;36.84;53.85254;95586.8;;;;
2020/08/06 14:29:34;;;;;;;3.3;2.9;;;;;;;36.84;53.85254;95586.8;;;;
2020/08/06 14:30:41;;;;;;;3.3;2.9;;;;;;;36.84;53.85254;95586.8;;;;
2020/08/06 14:31:45;;;;;;;3.3;2.9;;;;;;;36.84;53.85254;95586.8;;;;
2020/08/06 14:32:50;;;;;;;3.3;2.9;;;;;;;36.84;53.85254;95586.8;;;;
2020/08/06 14:33:50;;;;;;;3.3;2.9;;;;;;;36.84;53.85254;95586.8;;;;
2020/08/06 14:34:53;;;;;;;3.3;2.9;;;;;;;36.84;53.85254;95586.8;;;;
2020/08/06 14:35:58;;;;;;;3.3;2.9;;;;;;;36.84;53.85254;95586.8;;;;
2020/08/06 14:37:04;;;;;;;3.3;2.9;;;;;;;36.84;53.85254;95586.8;;;;
2020/08/06 14:38:09;;;;;;;3.3;2.9;;;;;;;36.84;53.85254;95586.8;;;;
2020/08/06 14:39:13;;;;;;;3.3;2.9;;;;;;;36.84;53.85254;95586.8;;;;
2020/08/06 14:40:18;;;;;;;3.3;2.9;;;;;;;36.84;53.85254;95586.8;;;;
2020/08/06 14:41:24;;;;;;;3.3;2.9;;;;;;;36.84;53.85254;95586.8;;;;
2020/08/06 14:42:30;;;;;;;3.3;2.9;;;;;;;36.84;53.85254;95586.8;;;;
2020/08/06 14:43:30;;;;;;;3.3;2.9;;;;;;;36.84;53.85254;95586.8;;;;
2020/08/06 15:59:39;;;;;;;4.1;3.75;;;;;;;30.22;55.55664;95547.43;;;;
2020/08/06 16:00:44;;;;;;;4.1;3.75;;;;;;;30.22;55.55664;95547.43;;;;
2020/08/06 16:01:49;;;;;;;4.1;3.75;;;;;;;30.22;55.55664;95547.43;;;;
2020/08/06 16:02:54;;;;;;;4.1;3.75;;;;;;;30.22;55.55664;95547.43;;;;
2020/08/06 16:04:01;;;;;;;4.1;3.75;;;;;;;30.22;55.55664;95547.43;;;;
2020/08/06 16:05:07;;;;;;;4.1;3.75;;;;;;;30.22;55.55664;95547.43;;;;
2020/08/06 16:06:14;;;;;;;4.1;3.75;;;;;;;30.22;55.55664;95547.43;;;;
2020/08/06 16:07:20;;;;;;;4.1;3.75;;;;;;;30.22;55.55664;95547.43;;;;
2020/08/06 16:08:25;;;;;;;4.1;3.75;;;;;;;30.22;55.55664;95547.43;;;;
2020/08/06 16:09:29;;;;;;;4.1;3.75;;;;;;;30.22;55.55664;95547.43;;;;
2020/08/06 16:10:34;;;;;;;4.1;3.75;;;;;;;30.22;55.55664;95547.43;;;;
2020/08/06 16:11:40;;;;;;;4.1;3.75;;;;;;;30.22;55.55664;95547.43;;;;
2020/08/06 16:12:44;;;;;;;4.1;3.75;;;;;;;30.22;55.55664;95547.43;;;;
2020/08/06 16:13:49;;;;;;;4.1;3.75;;;;;;;30.22;55.55664;95547.43;;;;
2020/08/06 16:14:58;;;;;;;4.1;3.75;;;;;;;30.22;55.55664;95547.43;;;;
2020/08/06 16:16:05;;;;;;;4.1;3.75;;;;;;;30.22;55.55664;95547.43;;;;
2020/08/06 16:17:13;;;;;;;4.1;3.75;;;;;;;30.22;55.55664;95547.43;;;;
2020/08/06 16:18:21;;;;;;;4.1;3.75;;;;;;;30.22;55.55664;95547.43;;;;
2020/08/06 16:19:29;;;;;;;4.1;3.75;;;;;;;30.22;55.55664;95547.43;;;;
2020/08/06 16:20:34;;;;;;;4.1;3.75;;;;;;;30.22;55.55664;95547.43;;;;
2020/08/06 16:21:44;;;;;;;4.1;3.75;;;;;;;30.22;55.55664;95547.43;;;;
2020/08/06 16:22:49;;;;;;;4.1;3.75;;;;;;;30.22;55.55664;95547.43;;;;
2020/08/06 16:23:54;;;;;;;4.1;3.75;;;;;;;30.22;55.55664;95547.43;;;;
2020/08/06 16:25:01;;;;;;;4.1;3.75;;;;;;;30.22;55.55664;95547.43;;;;
2020/08/06 16:26:11;;;;;;;4.1;3.75;;;;;;;30.22;55.55664;95547.43;;;;
2020/08/06 16:27:18;;;;;;;4.1;3.75;;;;;;;30.22;55.55664;95547.43;;;;
2020/08/06 16:28:23;;;;;;;4.1;3.75;;;;;;;30.22;55.55664;95547.43;;;;
2020/08/06 16:29:28;;;;;;;4.1;3.75;;;;;;;30.22;55.55664;95547.43;;;;
2020/08/06 16:30:33;;;;;;;4.1;3.75;;;;;;;30.22;55.55664;95547.43;;;;
2020/08/06 16:31:39;;;;;;;4.1;3.75;;;;;;;30.22;55.55664;95547.43;;;;
2020/08/06 16:32:45;;;;;;;4.1;3.75;;;;;;;30.22;55.55664;95547.43;;;;
2020/08/06 16:33:52;;;;;;;4.1;3.75;;;;;;;30.22;55.55664;95547.43;;;;
2020/08/06 16:34:57;;;;;;;4.1;3.75;;;;;;;30.22;55.55664;95547.43;;;;
2020/08/06 16:36:05;;;;;;;4.1;3.75;;;;;;;30.22;55.55664;95547.43;;;;
2020/08/06 16:37:12;;;;;;;4.1;3.75;;;;;;;30.22;55.55664;95547.43;;;;
2020/08/06 16:38:18;;;;;;;4.1;3.75;;;;;;;30.22;55.55664;95547.43;;;;
2020/08/06 16:39:23;;;;;;;4.1;3.75;;;;;;;30.22;55.55664;95547.43;;;;
2020/08/06 16:40:28;;;;;;;4.1;3.75;;;;;;;30.22;55.55664;95547.43;;;;
2020/08/06 16:41:35;;;;;;;4.1;3.75;;;;;;;30.22;55.55664;95547.43;;;;
2020/08/06 16:42:41;;;;;;;4.1;3.75;;;;;;;30.22;55.55664;95547.43;;;;
2020/08/06 16:43:45;;;;;;;4.1;3.75;;;;;;;30.22;55.55664;95547.43;;;;
2020/08/06 16:56:51;;;;;;;4.149999;3.8;;;;;;;28.04;60.28027;95557.25;;;;
2020/08/06 16:57:55;;;;;;;4.149999;3.8;;;;;;;28.04;60.28027;95557.25;;;;
2020/08/06 16:59:08;;;;;;;4.149999;3.8;;;;;;;28.04;60.28027;95557.25;;;;
2020/08/06 17:00:17;;;;;;;4.149999;3.8;;;;;;;28.04;60.28027;95557.25;;;;
2020/08/06 17:01:23;;;;;;;4.149999;3.8;;;;;;;28.04;60.28027;95557.25;;;;
2020/08/06 17:02:33;;;;;;;4.149999;3.8;;;;;;;28.04;60.28027;95557.25;;;;
2020/08/06 17:03:36;;;;;;;4.149999;3.8;;;;;;;28.04;60.28027;95557.25;;;;
2020/08/06 17:04:42;;;;;;;4.149999;3.8;;;;;;;28.04;60.28027;95557.25;;;;
2020/08/06 17:05:47;;;;;;;4.149999;3.8;;;;;;;28.04;60.28027;95557.25;;;;
2020/08/06 17:06:51;;;;;;;4.149999;3.8;;;;;;;28.04;60.28027;95557.25;;;;
2020/08/06 17:07:55;;;;;;;4.149999;3.8;;;;;;;28.04;60.28027;95557.25;;;;
2020/08/06 17:09:01;;;;;;;4.149999;3.8;;;;;;;28.04;60.28027;95557.25;;;;
2020/08/06 17:10:09;;;;;;;4.149999;3.8;;;;;;;28.04;60.28027;95557.25;;;;
2020/08/06 17:11:15;;;;;;;4.149999;3.8;;;;;;;28.04;60.28027;95557.25;;;;
2020/08/06 17:12:24;;;;;;;4.149999;3.8;;;;;;;28.04;60.28027;95557.25;;;;
2020/08/06 17:13:32;;;;;;;4.149999;3.8;;;;;;;28.04;60.28027;95557.25;;;;
2020/08/06 17:14:39;;;;;;;4.149999;3.8;;;;;;;28.04;60.28027;95557.25;;;;
2020/08/06 17:15:46;;;;;;;4.149999;3.8;;;;;;;28.04;60.28027;95557.25;;;;
2020/08/06 17:16:51;;;;;;;4.149999;3.8;;;;;;;28.04;60.28027;95557.25;;;;
2020/08/06 17:17:57;;;;;;;4.149999;3.8;;;;;;;28.04;60.28027;95557.25;;;;
2020/08/06 17:19:01;;;;;;;4.149999;3.8;;;;;;;28.04;60.28027;95557.25;;;;
2020/08/06 17:20:07;;;;;;;4.149999;3.8;;;;;;;28.04;60.28027;95557.25;;;;
2020/08/06 17:21:14;;;;;;;4.149999;3.8;;;;;;;28.04;60.28027;95557.25;;;;
2020/08/06 17:22:21;;;;;;;4.149999;3.8;;;;;;;28.04;60.28027;95557.25;;;;
2020/08/06 17:23:25;;;;;;;4.149999;3.8;;;;;;;28.04;60.28027;95557.25;;;;
2020/08/06 17:24:29;;;;;;;4.149999;3.8;;;;;;;28.04;60.28027;95557.25;;;;
2020/08/06 17:25:34;;;;;;;4.149999;3.8;;;;;;;28.04;60.28027;95557.25;;;;
2020/08/06 17:26:39;;;;;;;4.149999;3.8;;;;;;;28.04;60.28027;95557.25;;;;
2020/08/06 17:27:44;;;;;;;4.149999;3.8;;;;;;;28.04;60.28027;95557.25;;;;
2020/08/06 17:28:52;;;;;;;4.149999;3.8;;;;;;;28.04;60.28027;95557.25;;;;
2020/08/06 17:29:57;;;;;;;4.149999;3.8;;;;;;;28.04;60.28027;95557.25;;;;
2020/08/06 17:31:02;;;;;;;4.149999;3.8;;;;;;;28.04;60.28027;95557.25;;;;
2020/08/06 17:32:07;;;;;;;4.149999;3.8;;;;;;;28.04;60.28027;95557.25;;;;
2020/08/06 17:33:12;;;;;;;4.149999;3.8;;;;;;;28.04;60.28027;95557.25;;;;
2020/08/06 17:34:19;;;;;;;4.149999;3.8;;;;;;;28.04;60.28027;95557.25;;;;
2020/08/06 17:35:27;;;;;;;4.149999;3.8;;;;;;;28.04;60.28027;95557.25;;;;
2020/08/06 17:36:32;;;;;;;4.149999;3.8;;;;;;;28.04;60.28027;95557.25;;;;
2020/08/06 17:37:39;;;;;;;4.149999;3.8;;;;;;;28.04;60.28027;95557.25;;;;
2020/08/06 17:38:44;;;;;;;4.149999;3.8;;;;;;;28.04;60.28027;95557.25;;;;
2020/08/06 17:39:49;;;;;;;4.149999;3.8;;;;;;;28.04;60.28027;95557.25;;;;
2020/08/06 17:40:55;;;;;;;4.149999;3.8;;;;;;;28.04;60.28027;95557.25;;;;
2020/08/06 20:56:11;;;;;;;10.25;7.749999;;;;;;;17.53;93.89551;95676.03;;;;
2020/08/06 20:57:16;;;;;;;10.25;7.749999;;;;;;;17.53;93.89551;95676.03;;;;
2020/08/06 20:58:21;;;;;;;10.25;7.749999;;;;;;;17.53;93.89551;95676.03;;;;
2020/08/06 20:59:28;;;;;;;10.25;7.749999;;;;;;;17.53;93.89551;95676.03;;;;
2020/08/06 21:00:35;;;;;;;10.25;7.749999;;;;;;;17.53;93.89551;95676.03;;;;
2020/08/06 21:01:40;;;;;;;10.25;7.749999;;;;;;;17.53;93.89551;95676.03;;;;
2020/08/06 21:02:45;;;;;;;10.25;7.749999;;;;;;;17.53;93.89551;95676.03;;;;
2020/08/06 21:03:52;;;;;;;10.25;7.749999;;;;;;;17.53;93.89551;95676.03;;;;
2020/08/06 21:04:57;;;;;;;10.25;7.749999;;;;;;;17.53;93.89551;95676.03;;;;
2020/08/06 21:06:08;;;;;;;10.25;7.749999;;;;;;;17.53;93.89551;95676.03;;;;
2020/08/06 21:07:14;;;;;;;10.25;7.749999;;;;;;;17.53;93.89551;95676.03;;;;
2020/08/06 21:08:19;;;;;;;10.25;7.749999;;;;;;;17.53;93.89551;95676.03;;;;
2020/08/06 21:09:25;;;;;;;10.25;7.749999;;;;;;;17.53;93.89551;95676.03;;;;
2020/08/06 21:10:34;;;;;;;10.25;7.749999;;;;;;;17.53;93.89551;95676.03;;;;
2020/08/06 21:11:40;;;;;;;10.25;7.749999;;;;;;;17.53;93.89551;95676.03;;;;
2020/08/06 21:12:45;;;;;;;10.25;7.749999;;;;;;;17.53;93.89551;95676.03;;;;
2020/08/06 21:13:51;;;;;;;10.25;7.749999;;;;;;;17.53;93.89551;95676.03;;;;
2020/08/06 21:15:03;;;;;;;10.25;7.749999;;;;;;;17.53;93.89551;95676.03;;;;
2020/08/06 21:16:08;;;;;;;10.25;7.749999;;;;;;;17.53;93.89551;95676.03;;;;
2020/08/06 21:17:15;;;;;;;10.25;7.749999;;;;;;;17.53;93.89551;95676.03;;;;
2020/08/06 21:18:20;;;;;;;10.25;7.749999;;;;;;;17.53;93.89551;95676.03;;;;
2020/08/06 21:19:27;;;;;;;10.25;7.749999;;;;;;;17.53;93.89551;95676.03;;;;
2020/08/06 21:20:33;;;;;;;10.25;7.749999;;;;;;;17.53;93.89551;95676.03;;;;
2020/08/06 21:21:37;;;;;;;10.25;7.749999;;;;;;;17.53;93.89551;95676.03;;;;
2020/08/06 21:22:42;;;;;;;10.25;7.749999;;;;;;;17.53;93.89551;95676.03;;;;
2020/08/06 21:23:49;;;;;;;10.25;7.749999;;;;;;;17.53;93.89551;95676.03;;;;
2020/08/06 21:24:54;;;;;;;10.25;7.749999;;;;;;;17.53;93.89551;95676.03;;;;
2020/08/06 21:25:59;;;;;;;10.25;7.749999;;;;;;;17.53;93.89551;95676.03;;;;
2020/08/06 21:27:04;;;;;;;10.25;7.749999;;;;;;;17.53;93.89551;95676.03;;;;
2020/08/06 21:28:08;;;;;;;10.25;7.749999;;;;;;;17.53;93.89551;95676.03;;;;
2020/08/06 21:29:14;;;;;;;10.25;7.749999;;;;;;;17.53;93.89551;95676.03;;;;
2020/08/06 21:30:19;;;;;;;10.25;7.749999;;;;;;;17.53;93.89551;95676.03;;;;
2020/08/06 21:31:25;;;;;;;10.25;7.749999;;;;;;;17.53;93.89551;95676.03;;;;
2020/08/06 21:32:30;;;;;;;10.25;7.749999;;;;;;;17.53;93.89551;95676.03;;;;
2020/08/06 21:33:35;;;;;;;10.25;7.749999;;;;;;;17.53;93.89551;95676.03;;;;
2020/08/06 21:34:42;;;;;;;10.25;7.749999;;;;;;;17.53;93.89551;95676.03;;;;
2020/08/06 21:35:49;;;;;;;10.25;7.749999;;;;;;;17.53;93.89551;95676.03;;;;
2020/08/06 21:36:58;;;;;;;10.25;7.749999;;;;;;;17.53;93.89551;95676.03;;;;
2020/08/06 21:38:06;;;;;;;10.25;7.749999;;;;;;;17.53;93.89551;95676.03;;;;
2020/08/06 21:39:14;;;;;;;10.25;7.749999;;;;;;;17.53;93.89551;95676.03;;;;
2020/08/06 21:40:18;;;;;;;10.25;7.749999;;;;;;;17.53;93.89551;95676.03;;;;
2020/08/06 22:02:35;;;;;;;8.950001;8.049999;;;;;;;16.71;100;95662.3;;;;
2020/08/06 22:03:37;;;;;;;8.950001;8.049999;;;;;;;16.71;100;95662.3;;;;
2020/08/06 22:04:47;;;;;;;8.950001;8.049999;;;;;;;16.71;100;95662.3;;;;
2020/08/06 22:05:52;;;;;;;8.950001;8.049999;;;;;;;16.71;100;95662.3;;;;
2020/08/06 22:06:52;;;;;;;8.950001;8.049999;;;;;;;16.71;100;95662.3;;;;
2020/08/06 22:07:58;;;;;;;8.950001;8.049999;;;;;;;16.71;100;95662.3;;;;
2020/08/06 22:09:05;;;;;;;8.950001;8.049999;;;;;;;16.71;100;95662.3;;;;
2020/08/06 22:10:19;;;;;;;8.950001;8.049999;;;;;;;16.71;100;95662.3;;;;
2020/08/06 22:11:24;;;;;;;8.950001;8.049999;;;;;;;16.71;100;95662.3;;;;
2020/08/06 22:12:30;;;;;;;8.950001;8.049999;;;;;;;16.71;100;95662.3;;;;
2020/08/06 22:13:35;;;;;;;8.950001;8.049999;;;;;;;16.71;100;95662.3;;;;
2020/08/06 22:14:48;;;;;;;8.950001;8.049999;;;;;;;16.71;100;95662.3;;;;
2020/08/06 22:15:54;;;;;;;8.950001;8.049999;;;;;;;16.71;100;95662.3;;;;
2020/08/06 22:17:00;;;;;;;8.950001;8.049999;;;;;;;16.71;100;95662.3;;;;
2020/08/06 22:18:07;;;;;;;8.950001;8.049999;;;;;;;16.71;100;95662.3;;;;
2020/08/06 22:19:14;;;;;;;8.950001;8.049999;;;;;;;16.71;100;95662.3;;;;
2020/08/06 22:20:21;;;;;;;8.950001;8.049999;;;;;;;16.71;100;95662.3;;;;
2020/08/06 22:21:26;;;;;;;8.950001;8.049999;;;;;;;16.71;100;95662.3;;;;
2020/08/06 22:22:31;;;;;;;8.950001;8.049999;;;;;;;16.71;100;95662.3;;;;
2020/08/06 22:23:36;;;;;;;9.9;8.15;;;;;;;16.49;100;95656.19;;;;
2020/08/06 22:24:44;;;;;;;9.9;8.15;;;;;;;16.49;100;95656.19;;;;
2020/08/06 22:25:48;;;;;;;9.9;8.15;;;;;;;16.49;100;95656.19;;;;
2020/08/06 22:26:54;;;;;;;9.9;8.15;;;;;;;16.49;100;95656.19;;;;
2020/08/06 22:28:00;;;;;;;9.9;8.15;;;;;;;16.49;100;95656.19;;;;
2020/08/06 22:29:09;;;;;;;9.9;8.15;;;;;;;16.49;100;95656.19;;;;
2020/08/06 22:30:15;;;;;;;9.9;8.15;;;;;;;16.49;100;95656.19;;;;
2020/08/06 22:31:20;;;;;;;9.9;8.15;;;;;;;16.49;100;95656.19;;;;
2020/08/06 22:32:44;;;;;;;9.9;8.15;;;;;;;16.49;100;95656.19;;;;
2020/08/06 22:33:44;;;;;;;9.95;9.000001;;;;;;;16.37;100;95656.87;;;;
2020/08/06 22:34:51;;;;;;;9.95;9.000001;;;;;;;16.37;100;95656.87;;;;